AIRPORT_AIRPORT_METAR
METAR FOR LICA
ADDS - METARS form results

(2354 UTC 06 December 2019)
Data provider http://aviationweather.gov/metar/data/
 
Forecast for: LICA (LAMEZIA TERME , IT)
Text: TAF LICA 062300Z 0700/0724 VRB06KT 7000 SCT018 BKN040
Forecast period: 0000 UTC 07 December 2019 to 0000 UTC 08 December 2019
Forecast type: FROM: standard forecast or significant change
Winds: variable direction winds at 7 MPH (6 knots; 3.1 m/s)
Visibility: 4 miles (7 km)
Ceiling: 4000 feet AGL
Clouds: scattered clouds at 1800 feet AGL
broken clouds at 4000 feet AGL
Weather: no significant weather forecast for this period

 AIRPORT_AIRPORT_MAP

 AIRPORT_RUNWAY_INFO
AIRPORT_RUNWAY 10 AIRPORT_RUNWAY_LENGTH 7920 ft AIRPORT_RUNWAY_WIDTH 148 ft
AIRPORT_RUNWAY_ELEVATION 20 ft AIRPORT_RUNWAY_THRESHOLD 348 ft AIRPORT_RUNWAY_HEADING 99
AIRPORT_RUNWAY 28 AIRPORT_RUNWAY_LENGTH 7920 ft AIRPORT_RUNWAY_WIDTH 148 ft
AIRPORT_RUNWAY_ELEVATION 39 ft AIRPORT_RUNWAY_THRESHOLD 351 ft AIRPORT_RUNWAY_HEADING 279

 AIRPORT_AIRPORT_FREQUENCIES
AIRPORT_AIRPORT_NAVAIDS_TYPE APP AIRPORT_AIRPORT_NAVAIDS_NAME APP AIRPORT_AIRPORT_NAVAIDS_FREQ 118.8 MHZ
AIRPORT_AIRPORT_NAVAIDS_TYPE TWR AIRPORT_AIRPORT_NAVAIDS_NAME TWR AIRPORT_AIRPORT_NAVAIDS_FREQ 119.7 MHZ

 AIRPORT_AIRPORT_NAVAIDS
AIRPORT_AIRPORT_NAVAIDS_TYPE VOR-DME AIRPORT_AIRPORT_NAVAIDS_NAME Lamezia Terme AIRPORT_AIRPORT_NAVAIDS_FREQ 112500 KHZ



Copyright © 2005-2019 - Virtuel Air Alsace - Tous droits réservés